createdAt,value
2018-04-22T00:01:21.175Z,19.50
2018-04-22T00:03:48.036Z,19.50
2018-04-22T00:06:14.895Z,19.40
2018-04-22T00:08:41.781Z,19.40
2018-04-22T00:11:08.684Z,19.30
2018-04-22T00:13:35.596Z,19.30
2018-04-22T00:16:02.867Z,19.30
2018-04-22T00:18:30.176Z,19.20
2018-04-22T00:20:57.057Z,19.20
2018-04-22T00:23:23.917Z,19.20
2018-04-22T00:25:51.153Z,19.10
2018-04-22T00:28:18.013Z,19.10
2018-04-22T00:30:44.972Z,19.00
2018-04-22T00:33:11.849Z,18.90
2018-04-22T00:35:38.710Z,18.90
2018-04-22T00:38:05.573Z,18.90
2018-04-22T00:40:32.452Z,19.00
2018-04-22T00:42:59.307Z,19.10
2018-04-22T00:45:26.197Z,19.10
2018-04-22T00:47:53.072Z,19.20
2018-04-22T00:50:19.921Z,19.00
2018-04-22T00:52:46.887Z,18.90
2018-04-22T00:55:13.846Z,18.90
2018-04-22T00:57:40.846Z,18.90
2018-04-22T01:00:07.764Z,18.90
2018-04-22T01:02:34.640Z,19.00
2018-04-22T01:05:01.529Z,19.00
2018-04-22T01:07:28.437Z,19.10
2018-04-22T01:09:55.297Z,19.00
2018-04-22T01:12:22.256Z,18.90
2018-04-22T01:14:49.126Z,18.80
2018-04-22T01:17:16.085Z,18.80
2018-04-22T01:19:43.028Z,18.70
2018-04-22T01:22:09.985Z,18.70
2018-04-22T01:24:36.852Z,18.70
2018-04-22T01:27:03.736Z,18.60
2018-04-22T01:29:30.631Z,18.70
2018-04-22T01:31:57.544Z,18.60
2018-04-22T01:34:24.425Z,18.70
2018-04-22T01:36:51.305Z,18.80
2018-04-22T01:39:18.612Z,18.80
2018-04-22T01:41:45.477Z,18.80
2018-04-22T01:44:12.433Z,18.60
2018-04-22T01:46:39.280Z,18.50
2018-04-22T01:49:06.242Z,18.50
2018-04-22T01:51:33.206Z,18.60
2018-04-22T01:54:00.080Z,18.40
2018-04-22T01:56:27.028Z,18.30
2018-04-22T01:58:53.976Z,18.20
2018-04-22T02:01:21.902Z,18.20
2018-04-22T02:03:48.819Z,18.20
2018-04-22T02:06:15.694Z,18.20
2018-04-22T02:08:42.650Z,18.20
2018-04-22T02:11:09.525Z,18.20
2018-04-22T02:13:36.383Z,18.20
2018-04-22T02:16:03.307Z,18.20
2018-04-22T02:18:30.164Z,18.10
2018-04-22T02:20:57.041Z,18.10
2018-04-22T02:23:23.915Z,18.10
2018-04-22T02:25:50.798Z,18.10
2018-04-22T02:28:18.105Z,18.00
2018-04-22T02:30:44.989Z,18.00
2018-04-22T02:33:11.923Z,17.90
2018-04-22T02:35:38.776Z,17.80
2018-04-22T02:38:05.741Z,17.90
2018-04-22T02:40:32.636Z,17.80
2018-04-22T02:42:59.568Z,17.80
2018-04-22T02:45:26.429Z,17.80
2018-04-22T02:47:53.432Z,17.80
2018-04-22T02:50:20.703Z,17.80
2018-04-22T02:52:48.004Z,17.80
2018-04-22T02:55:14.877Z,17.80
2018-04-22T02:57:41.757Z,17.90
2018-04-22T03:00:08.624Z,17.80
2018-04-22T03:02:35.532Z,17.80
2018-04-22T03:05:02.417Z,17.70
2018-04-22T03:07:29.271Z,17.60
2018-04-22T03:09:56.208Z,17.50
2018-04-22T03:12:23.100Z,17.40
2018-04-22T03:14:50.038Z,17.40
2018-04-22T03:17:16.992Z,17.30
2018-04-22T03:19:43.866Z,17.10
2018-04-22T03:22:10.839Z,16.90
2018-04-22T03:24:37.772Z,17.00
2018-04-22T03:27:04.727Z,17.00
2018-04-22T03:29:31.687Z,16.90
2018-04-22T03:31:58.537Z,17.00
2018-04-22T03:34:25.502Z,17.00
2018-04-22T03:36:52.368Z,17.10
2018-04-22T03:39:19.317Z,17.20
2018-04-22T03:41:46.272Z,17.10
2018-04-22T03:44:13.132Z,17.10
2018-04-22T03:46:40.100Z,17.00
2018-04-22T03:49:06.963Z,17.00
2018-04-22T03:51:33.848Z,17.10
2018-04-22T03:54:00.709Z,17.00
2018-04-22T03:56:27.556Z,17.10
2018-04-22T03:58:54.451Z,17.10
2018-04-22T04:01:21.358Z,17.10
2018-04-22T04:03:48.234Z,17.10
2018-04-22T04:06:15.125Z,17.00
2018-04-22T04:08:42.436Z,16.90
2018-04-22T04:11:09.319Z,16.90
2018-04-22T04:13:36.180Z,16.80
2018-04-22T04:16:03.064Z,16.70
2018-04-22T04:21:41.516Z,16.60
2018-04-22T04:27:24.069Z,16.60
2018-04-22T04:29:50.936Z,16.50
2018-04-22T04:32:18.192Z,16.50
2018-04-22T04:34:45.073Z,16.50
2018-04-22T04:37:12.315Z,16.60
2018-04-22T04:39:39.178Z,16.60
2018-04-22T04:42:06.449Z,16.50
2018-04-22T04:44:33.698Z,16.60
2018-04-22T04:47:00.619Z,16.60
2018-04-22T04:49:27.576Z,16.60
2018-04-22T04:51:54.536Z,16.50
2018-04-22T04:54:21.511Z,16.50
2018-04-22T04:56:48.464Z,16.70
2018-04-22T04:59:15.319Z,16.60
2018-04-22T05:01:42.264Z,16.60
2018-04-22T05:04:09.124Z,16.60
2018-04-22T05:06:36.093Z,16.60
2018-04-22T05:09:02.949Z,16.60
2018-04-22T05:11:29.848Z,16.60
2018-04-22T05:13:56.742Z,16.60
2018-04-22T05:16:23.681Z,16.70
2018-04-22T05:18:50.954Z,16.80
2018-04-22T05:21:18.255Z,16.90
2018-04-22T05:23:45.207Z,16.90
2018-04-22T05:26:12.069Z,16.90
2018-04-22T05:28:39.029Z,16.90
2018-04-22T05:31:06.020Z,17.00
2018-04-22T05:33:32.952Z,17.00
2018-04-22T05:35:59.841Z,17.20
2018-04-22T05:38:26.785Z,17.20
2018-04-22T05:40:53.655Z,17.30
2018-04-22T05:43:20.582Z,17.30
2018-04-22T05:45:47.545Z,17.50
2018-04-22T05:48:14.392Z,17.50
2018-04-22T05:50:41.270Z,17.60
2018-04-22T05:53:08.225Z,17.70
2018-04-22T05:55:35.089Z,17.70
2018-04-22T05:58:01.969Z,17.80
2018-04-22T06:00:28.888Z,17.80
2018-04-22T06:02:55.760Z,17.90
2018-04-22T06:05:22.672Z,18.00
2018-04-22T06:07:50.077Z,18.00
2018-04-22T06:10:16.928Z,18.10
2018-04-22T06:12:43.821Z,18.00
2018-04-22T06:15:10.681Z,18.10
2018-04-22T06:17:38.357Z,18.10
2018-04-22T06:20:05.278Z,18.10
2018-04-22T06:22:32.237Z,18.20
2018-04-22T06:24:59.097Z,18.20
2018-04-22T06:27:25.966Z,18.10
2018-04-22T06:29:52.845Z,18.10
2018-04-22T06:32:19.773Z,17.90
2018-04-22T06:34:46.654Z,17.80
2018-04-22T06:37:13.608Z,17.90
2018-04-22T06:39:40.458Z,18.00
2018-04-22T06:42:07.404Z,18.20
2018-04-22T06:44:34.264Z,18.40
2018-04-22T06:47:01.215Z,18.60
2018-04-22T06:49:28.154Z,18.70
2018-04-22T06:51:55.473Z,19.00
2018-04-22T06:54:22.568Z,19.00
2018-04-22T06:56:49.880Z,19.20
2018-04-22T06:59:16.826Z,19.20
2018-04-22T07:01:43.791Z,19.40
2018-04-22T07:04:10.656Z,19.50
2018-04-22T07:06:39.432Z,19.70
2018-04-22T07:09:06.309Z,19.90
2018-04-22T07:11:33.274Z,20.00
2018-04-22T07:14:00.225Z,20.10
2018-04-22T07:16:27.095Z,20.30
2018-04-22T07:18:53.974Z,20.40
2018-04-22T07:21:20.882Z,20.50
2018-04-22T07:23:47.743Z,20.50
2018-04-22T07:26:14.604Z,20.60
2018-04-22T07:28:41.464Z,20.70
2018-04-22T07:31:08.430Z,20.90
2018-04-22T07:33:35.306Z,20.90
2018-04-22T07:36:02.272Z,21.00
2018-04-22T07:38:29.208Z,21.10
2018-04-22T07:40:56.060Z,21.20
2018-04-22T07:43:23.029Z,21.30
2018-04-22T07:45:49.919Z,21.30
2018-04-22T07:48:16.780Z,21.50
2018-04-22T07:50:43.669Z,21.70
2018-04-22T07:53:10.518Z,21.70
2018-04-22T07:55:37.402Z,21.80
2018-04-22T07:58:04.366Z,21.80
2018-04-22T08:00:31.222Z,21.90
2018-04-22T08:02:58.197Z,22.00
2018-04-22T08:05:25.132Z,22.20
2018-04-22T08:07:52.094Z,22.30
2018-04-22T08:10:18.981Z,22.30
2018-04-22T08:12:45.929Z,22.30
2018-04-22T08:15:12.798Z,22.40
2018-04-22T08:17:39.673Z,22.40
2018-04-22T08:20:06.986Z,22.60
2018-04-22T08:22:33.844Z,22.60
2018-04-22T08:25:00.725Z,22.60
2018-04-22T08:27:27.601Z,22.80
2018-04-22T08:29:54.468Z,22.70
2018-04-22T08:32:21.772Z,22.90
2018-04-22T08:34:48.652Z,22.90
2018-04-22T08:37:15.536Z,23.00
2018-04-22T08:39:42.424Z,23.00
2018-04-22T08:42:09.684Z,23.20
2018-04-22T08:44:36.993Z,23.20
2018-04-22T08:47:03.865Z,23.20
2018-04-22T08:49:30.848Z,23.20
2018-04-22T08:51:57.725Z,23.40
2018-04-22T08:54:24.636Z,23.40
2018-04-22T08:56:51.593Z,23.50
2018-04-22T08:59:18.550Z,23.50
2018-04-22T09:01:45.420Z,23.60
2018-04-22T09:04:12.376Z,23.60
2018-04-22T09:06:39.252Z,23.60
2018-04-22T09:09:06.128Z,23.80
2018-04-22T09:11:33.040Z,24.00
2018-04-22T09:13:59.920Z,24.10
2018-04-22T09:16:26.895Z,24.10
2018-04-22T09:18:53.812Z,24.20
2018-04-22T09:21:20.697Z,24.30
2018-04-22T09:23:47.610Z,24.40
2018-04-22T09:26:14.497Z,24.50
2018-04-22T09:28:41.352Z,24.60
2018-04-22T09:31:08.230Z,24.70
2018-04-22T09:33:35.155Z,24.80
2018-04-22T09:36:02.029Z,24.80
2018-04-22T09:38:28.972Z,24.90
2018-04-22T09:40:56.080Z,24.90
2018-04-22T09:43:23.009Z,25.00
2018-04-22T09:45:49.888Z,25.10
2018-04-22T09:48:16.745Z,25.10
2018-04-22T09:50:43.673Z,25.00
2018-04-22T09:53:10.628Z,25.00
2018-04-22T09:55:37.600Z,25.00
2018-04-22T09:58:04.560Z,25.10
2018-04-22T10:00:31.432Z,25.10
2018-04-22T10:02:58.306Z,25.20
2018-04-22T10:05:25.216Z,25.20
2018-04-22T10:07:52.088Z,25.20
2018-04-22T10:10:19.000Z,25.40
2018-04-22T10:12:46.260Z,25.40
2018-04-22T10:15:13.573Z,25.60
2018-04-22T10:17:40.501Z,25.60
2018-04-22T10:20:07.544Z,25.60
2018-04-22T10:22:34.856Z,25.70
2018-04-22T10:25:01.713Z,25.80
2018-04-22T10:27:28.578Z,25.90
2018-04-22T10:29:55.452Z,26.00
2018-04-22T10:32:22.400Z,26.00
2018-04-22T10:34:49.376Z,26.10
2018-04-22T10:37:16.229Z,26.10
2018-04-22T10:39:43.112Z,26.20
2018-04-22T10:42:09.972Z,26.30
2018-04-22T10:44:37.240Z,26.40
2018-04-22T10:47:04.497Z,26.10
2018-04-22T10:49:31.421Z,26.10
2018-04-22T10:51:58.456Z,26.00
2018-04-22T10:54:25.830Z,26.10
2018-04-22T10:56:52.685Z,26.10
2018-04-22T10:59:19.582Z,26.30
2018-04-22T11:01:46.444Z,26.40
2018-04-22T11:04:13.327Z,26.60
2018-04-22T11:06:40.700Z,26.90
2018-04-22T11:09:07.536Z,26.90
2018-04-22T11:11:34.397Z,27.00
2018-04-22T11:14:01.281Z,27.20
2018-04-22T11:16:28.576Z,27.40
2018-04-22T11:18:55.531Z,27.40
2018-04-22T11:21:22.529Z,27.60
2018-04-22T11:23:49.415Z,27.70
2018-04-22T11:26:16.722Z,27.90
2018-04-22T11:28:43.714Z,27.90
2018-04-22T11:31:10.736Z,28.00
2018-04-22T11:33:37.719Z,28.00
2018-04-22T11:36:05.562Z,28.10
2018-04-22T11:38:32.590Z,28.10
2018-04-22T11:40:59.508Z,27.90
2018-04-22T11:43:26.467Z,27.80
2018-04-22T11:45:53.360Z,27.90
2018-04-22T11:48:20.312Z,27.90
2018-04-22T11:50:47.189Z,27.80
2018-04-22T11:53:14.434Z,27.70
2018-04-22T11:55:41.358Z,27.70
2018-04-22T11:58:08.337Z,27.70
2018-04-22T12:00:35.365Z,27.80
2018-04-22T12:03:02.340Z,27.80
2018-04-22T12:05:29.232Z,27.90
2018-04-22T12:07:56.164Z,28.00
2018-04-22T12:10:23.124Z,28.00
2018-04-22T12:12:50.005Z,28.10
2018-04-22T12:15:16.859Z,28.10
2018-04-22T12:17:43.720Z,28.20
2018-04-22T12:20:10.672Z,28.20
2018-04-22T12:22:37.619Z,28.10
2018-04-22T12:25:04.564Z,28.20
2018-04-22T12:27:31.439Z,28.20
2018-04-22T12:29:58.326Z,28.40
2018-04-22T12:32:25.189Z,28.50
2018-04-22T12:34:52.528Z,28.60
2018-04-22T12:37:19.485Z,28.60
2018-04-22T12:39:46.355Z,28.60
2018-04-22T12:42:13.218Z,28.60
2018-04-22T12:44:40.136Z,28.70
2018-04-22T12:47:07.099Z,28.80
2018-04-22T12:49:34.085Z,28.80
2018-04-22T12:52:00.936Z,28.90
2018-04-22T12:54:27.804Z,28.90
2018-04-22T12:56:54.670Z,29.00
2018-04-22T12:59:21.630Z,29.10
2018-04-22T13:01:48.480Z,29.00
2018-04-22T13:04:15.409Z,28.90
2018-04-22T13:06:42.265Z,28.90
2018-04-22T13:09:09.142Z,28.90
2018-04-22T13:11:36.021Z,29.00
2018-04-22T13:14:02.949Z,29.10
2018-04-22T13:16:29.889Z,29.10
2018-04-22T13:18:56.762Z,29.10
2018-04-22T13:21:23.636Z,29.10
2018-04-22T13:23:50.507Z,29.20
2018-04-22T13:26:17.384Z,29.40
2018-04-22T13:28:44.704Z,29.70
2018-04-22T13:31:11.567Z,29.70
2018-04-22T13:33:38.449Z,29.80
2018-04-22T13:36:05.386Z,29.80
2018-04-22T13:38:32.324Z,29.90
2018-04-22T13:40:59.192Z,30.00
2018-04-22T13:43:26.065Z,29.90
2018-04-22T13:45:54.046Z,29.80
2018-04-22T13:48:27.104Z,29.70
2018-04-22T13:50:54.515Z,29.50
2018-04-22T13:53:21.387Z,29.50
2018-04-22T13:55:48.276Z,29.50
2018-04-22T13:58:15.544Z,29.30
2018-04-22T14:00:42.872Z,29.30
2018-04-22T14:03:09.865Z,29.30
2018-04-22T14:05:37.128Z,29.40
2018-04-22T14:08:04.449Z,29.30
2018-04-22T14:10:31.301Z,29.30
2018-04-22T14:12:58.372Z,29.30
2018-04-22T14:15:25.297Z,29.30
2018-04-22T14:17:53.909Z,29.40
2018-04-22T14:20:20.768Z,29.30
2018-04-22T14:22:47.752Z,29.30
2018-04-22T14:25:14.767Z,29.40
2018-04-22T14:27:41.564Z,29.40
2018-04-22T14:30:08.510Z,29.60
2018-04-22T14:32:35.361Z,29.70
2018-04-22T14:35:02.603Z,29.70
2018-04-22T14:37:30.219Z,29.60
2018-04-22T14:39:57.124Z,29.60
2018-04-22T14:42:24.376Z,29.70
2018-04-22T14:45:03.323Z,29.70
2018-04-22T14:47:30.217Z,29.80
2018-04-22T14:49:57.471Z,30.00
2018-04-22T14:52:24.720Z,29.90
2018-04-22T14:54:51.619Z,29.90
2018-04-22T14:57:18.494Z,29.80
2018-04-22T14:59:45.352Z,29.50
2018-04-22T15:02:12.312Z,29.50
2018-04-22T15:04:39.172Z,29.60
2018-04-22T15:07:06.047Z,29.70
2018-04-22T15:09:32.983Z,29.90
2018-04-22T15:11:59.864Z,30.00
2018-04-22T15:14:26.724Z,30.10
2018-04-22T15:16:53.592Z,30.20
2018-04-22T15:19:20.558Z,30.20
2018-04-22T15:21:47.409Z,30.40
2018-04-22T15:24:14.276Z,30.40
2018-04-22T15:26:41.171Z,30.40
2018-04-22T15:29:08.041Z,30.50
2018-04-22T15:31:34.975Z,30.60
2018-04-22T15:34:01.846Z,30.50
2018-04-22T15:36:29.599Z,30.50
2018-04-22T15:38:56.492Z,30.50
2018-04-22T15:41:23.357Z,30.50
2018-04-22T15:43:50.361Z,30.50
2018-04-22T15:46:17.672Z,30.30
2018-04-22T15:48:44.536Z,30.30
2018-04-22T15:51:11.404Z,30.40
2018-04-22T15:53:38.264Z,30.30
2018-04-22T15:56:05.191Z,30.30
2018-04-22T15:58:32.041Z,30.30
2018-04-22T16:00:58.912Z,30.20
2018-04-22T16:03:25.869Z,30.20
2018-04-22T16:05:52.778Z,30.20
2018-04-22T16:08:19.683Z,30.30
2018-04-22T16:10:46.516Z,30.30
2018-04-22T16:13:13.824Z,30.00
2018-04-22T16:15:40.780Z,30.00
2018-04-22T16:18:07.740Z,30.10
2018-04-22T16:20:34.720Z,30.40
2018-04-22T16:23:01.575Z,30.80
2018-04-22T16:25:28.512Z,31.40
2018-04-22T16:27:55.491Z,32.10
2018-04-22T16:30:22.441Z,32.60
2018-04-22T16:32:49.412Z,33.30
2018-04-22T16:35:16.319Z,33.90
2018-04-22T16:37:43.133Z,34.50
2018-04-22T16:40:09.998Z,34.80
2018-04-22T16:42:36.862Z,34.70
2018-04-22T16:45:03.773Z,34.30
2018-04-22T16:47:30.649Z,33.60
2018-04-22T16:49:57.514Z,32.80
2018-04-22T16:52:24.441Z,32.30
2018-04-22T16:54:51.342Z,32.00
2018-04-22T16:57:18.252Z,31.60
2018-04-22T16:59:45.211Z,31.30
2018-04-22T17:02:12.067Z,30.90
2018-04-22T17:04:38.930Z,30.30
2018-04-22T17:07:05.880Z,29.80
2018-04-22T17:09:32.743Z,29.50
2018-04-22T17:11:59.699Z,29.30
2018-04-22T17:14:26.627Z,29.20
2018-04-22T17:16:53.954Z,28.80
2018-04-22T17:19:20.816Z,28.80
2018-04-22T17:21:47.703Z,28.70
2018-04-22T17:24:15.001Z,28.60
2018-04-22T17:26:42.215Z,28.40
2018-04-22T17:29:09.085Z,28.40
2018-04-22T17:31:35.934Z,28.20
2018-04-22T17:34:02.934Z,28.10
2018-04-22T17:36:29.803Z,28.10
2018-04-22T17:38:56.662Z,27.90
2018-04-22T17:41:23.519Z,27.80
2018-04-22T17:43:50.371Z,27.70
2018-04-22T17:46:17.236Z,27.70
2018-04-22T17:48:44.192Z,27.60
2018-04-22T17:51:11.035Z,27.60
2018-04-22T17:53:37.924Z,27.50
2018-04-22T17:56:04.867Z,27.40
2018-04-22T17:58:31.732Z,27.40
2018-04-22T18:00:58.693Z,27.30
2018-04-22T18:03:25.564Z,27.10
2018-04-22T18:05:52.500Z,26.80
2018-04-22T18:08:19.360Z,26.70
2018-04-22T18:10:46.329Z,26.60
2018-04-22T18:13:13.176Z,26.50
2018-04-22T18:15:40.131Z,26.30
2018-04-22T18:18:06.999Z,26.00
2018-04-22T18:20:33.847Z,25.80
2018-04-22T18:23:00.714Z,25.70
2018-04-22T18:25:27.664Z,25.70
2018-04-22T18:27:54.524Z,25.70
2018-04-22T18:30:21.542Z,25.60
2018-04-22T18:32:48.539Z,25.60
2018-04-22T18:35:15.400Z,25.60
2018-04-22T18:37:42.356Z,25.40
2018-04-22T18:40:09.203Z,25.40
2018-04-22T18:42:36.068Z,25.30
2018-04-22T18:45:02.944Z,25.10
2018-04-22T18:47:29.793Z,25.00
2018-04-22T18:49:56.752Z,24.90
2018-04-22T18:52:23.648Z,24.80
2018-04-22T18:54:50.497Z,24.70
2018-04-22T18:57:17.348Z,24.60
2018-04-22T18:59:44.280Z,24.70
2018-04-22T19:43:45.408Z,23.10
2018-04-22T19:46:12.735Z,23.40
2018-04-22T19:48:39.592Z,23.40
2018-04-22T19:51:06.456Z,23.70
2018-04-22T19:53:33.391Z,23.90
2018-04-22T19:56:00.348Z,24.00
2018-04-22T19:58:27.307Z,24.10
2018-04-22T20:00:54.176Z,24.10
2018-04-22T20:03:21.039Z,24.00
2018-04-22T20:05:47.997Z,24.00
2018-04-22T20:08:14.951Z,23.90
2018-04-22T20:10:41.904Z,23.90
2018-04-22T20:13:08.780Z,23.80
2018-04-22T20:15:35.677Z,23.70
2018-04-22T20:18:02.493Z,23.60
2018-04-22T20:20:29.360Z,23.50
2018-04-22T20:22:56.216Z,23.50
2018-04-22T20:25:23.155Z,23.50
2018-04-22T20:27:50.011Z,23.50
2018-04-22T20:30:16.965Z,23.60
2018-04-22T20:32:43.923Z,23.80
2018-04-22T20:35:10.795Z,23.80
2018-04-22T20:37:37.763Z,23.80
2018-04-22T20:40:04.634Z,23.80
2018-04-22T20:42:31.633Z,23.70
2018-04-22T20:44:58.525Z,23.70
2018-04-22T20:47:25.391Z,23.70
2018-04-22T20:49:52.463Z,23.60
2018-04-22T20:52:19.344Z,23.50
2018-04-22T20:54:46.216Z,23.40
2018-04-22T20:57:13.132Z,23.30
2018-04-22T20:59:40.010Z,23.30
2018-04-22T21:02:06.853Z,23.40
2018-04-22T21:04:33.780Z,23.30
2018-04-22T21:07:00.644Z,23.20
2018-04-22T21:09:27.512Z,23.20
2018-04-22T21:11:54.470Z,23.30
2018-04-22T21:14:21.430Z,23.40
2018-04-22T21:16:48.288Z,23.40
2018-04-22T21:19:15.160Z,23.40
2018-04-22T21:21:42.022Z,23.40
2018-04-22T21:24:08.952Z,23.20
2018-04-22T21:26:35.803Z,23.10
2018-04-22T21:29:02.775Z,23.10
2018-04-22T21:31:29.732Z,23.00
2018-04-22T21:33:56.714Z,23.00
2018-04-22T21:36:23.648Z,22.90
2018-04-22T21:38:50.518Z,22.80
2018-04-22T21:41:17.370Z,22.80
2018-04-22T21:43:44.333Z,22.80
2018-04-22T21:46:11.301Z,22.80
2018-04-22T21:48:38.195Z,22.80
2018-04-22T21:51:05.116Z,22.80
2018-04-22T21:53:32.057Z,22.80
2018-04-22T21:55:58.927Z,22.80
2018-04-22T21:58:25.781Z,22.90
2018-04-22T22:00:52.624Z,22.90
2018-04-22T22:03:19.525Z,22.90
2018-04-22T22:05:46.364Z,22.90
2018-04-22T22:08:13.244Z,23.00
2018-04-22T22:10:40.087Z,22.90
2018-04-22T22:13:07.052Z,22.80
2018-04-22T22:15:33.982Z,22.80
2018-04-22T22:18:00.848Z,22.70
2018-04-22T22:20:27.792Z,22.70
2018-04-22T22:22:54.675Z,22.60
2018-04-22T22:25:21.640Z,22.60
2018-04-22T22:27:48.492Z,22.50
2018-04-22T22:30:15.353Z,22.40
2018-04-22T22:32:42.200Z,22.40
2018-04-22T22:35:09.140Z,22.40
2018-04-22T22:37:35.987Z,22.30
2018-04-22T22:40:02.880Z,22.30
2018-04-22T22:42:29.779Z,22.10
2018-04-22T22:44:56.663Z,21.90
2018-04-22T22:47:23.660Z,21.80
2018-04-22T22:49:50.611Z,21.80
2018-04-22T22:52:17.556Z,21.70
2018-04-22T22:54:44.504Z,21.70
2018-04-22T22:57:11.459Z,21.60
2018-04-22T22:59:38.338Z,21.60
2018-04-22T23:02:05.195Z,21.70
2018-04-22T23:04:32.052Z,21.70
2018-04-22T23:06:58.996Z,21.70
2018-04-22T23:09:25.951Z,21.60
2018-04-22T23:11:52.809Z,21.50
2018-04-22T23:14:19.779Z,21.50
2018-04-22T23:16:46.656Z,21.50
2018-04-22T23:19:13.523Z,21.40
2018-04-22T23:21:40.380Z,21.40
2018-04-22T23:24:07.244Z,21.20
2018-04-22T23:26:34.152Z,21.00
2018-04-22T23:29:01.016Z,20.90
2018-04-22T23:31:27.984Z,20.90
2018-04-22T23:33:54.832Z,20.80
2018-04-22T23:36:21.803Z,20.60
2018-04-22T23:38:48.681Z,20.60
2018-04-22T23:41:15.540Z,20.50
2018-04-22T23:43:42.388Z,20.40
2018-04-22T23:46:09.312Z,20.30
2018-04-22T23:48:36.278Z,20.30
2018-04-22T23:51:03.120Z,20.20
2018-04-22T23:53:30.019Z,20.10
2018-04-22T23:55:56.880Z,20.00
2018-04-22T23:58:23.813Z,20.00
